createdAt,value
2022-12-18T00:00:15.484Z,8.50
2022-12-18T00:03:03.634Z,7.60
2022-12-18T00:05:32.760Z,8.30
2022-12-18T00:08:00.937Z,8.30
2022-12-18T00:10:30.347Z,8.00
2022-12-18T00:12:58.455Z,8.40
2022-12-18T00:15:26.667Z,7.60
2022-12-18T00:17:54.740Z,8.50
2022-12-18T00:20:26.699Z,7.80
2022-12-18T00:22:55.239Z,8.60
2022-12-18T00:25:24.000Z,7.90
2022-12-18T00:27:52.395Z,8.40
2022-12-18T00:30:20.713Z,8.70
2022-12-18T00:32:48.770Z,8.40
2022-12-18T00:35:16.972Z,8.20
2022-12-18T00:37:45.067Z,7.50
2022-12-18T00:40:13.679Z,8.10
2022-12-18T00:42:57.017Z,8.90
2022-12-18T00:45:31.371Z,8.30
2022-12-18T00:47:59.542Z,8.30
2022-12-18T00:50:28.175Z,7.70
2022-12-18T00:52:56.331Z,8.10
2022-12-18T00:55:24.442Z,8.10
2022-12-18T00:57:53.661Z,7.80
2022-12-18T01:00:22.217Z,7.90
2022-12-18T01:02:50.549Z,7.70
2022-12-18T01:05:19.572Z,8.00
2022-12-18T01:07:47.749Z,8.20
2022-12-18T01:10:15.987Z,7.80
2022-12-18T01:12:44.314Z,7.60
2022-12-18T01:15:15.519Z,8.00
2022-12-18T01:20:14.359Z,7.50
2022-12-18T01:22:42.536Z,7.90
2022-12-18T01:25:10.883Z,7.90
2022-12-18T01:27:38.990Z,8.00
2022-12-18T01:30:08.349Z,7.90
2022-12-18T01:32:36.737Z,7.40
2022-12-18T01:35:06.486Z,7.70
2022-12-18T01:37:34.756Z,7.50
2022-12-18T01:40:03.017Z,7.80
2022-12-18T01:42:31.163Z,7.70
2022-12-18T01:45:12.384Z,7.50
2022-12-18T01:47:56.040Z,7.70
2022-12-18T01:50:31.074Z,7.30
2022-12-18T01:53:01.330Z,7.40
2022-12-18T01:55:33.657Z,7.60
2022-12-18T01:58:02.537Z,7.80
2022-12-18T02:00:31.091Z,7.00
2022-12-18T02:02:59.329Z,7.00
2022-12-18T02:06:01.981Z,7.40
2022-12-18T02:08:41.630Z,8.00
2022-12-18T02:11:37.990Z,7.70
2022-12-18T02:14:22.264Z,7.00
2022-12-18T02:17:13.517Z,7.60
2022-12-18T02:19:53.467Z,7.20
2022-12-18T02:22:59.830Z,8.10
2022-12-18T02:26:02.831Z,7.40
2022-12-18T02:28:41.154Z,7.40
2022-12-18T02:31:16.143Z,7.30
2022-12-18T02:33:46.874Z,7.10
2022-12-18T02:36:17.665Z,7.50
2022-12-18T02:38:47.809Z,7.30
2022-12-18T02:41:19.071Z,7.30
2022-12-18T02:43:56.412Z,8.00
2022-12-18T02:46:34.025Z,7.00
2022-12-18T02:49:22.551Z,8.00
2022-12-18T02:52:26.592Z,7.50
2022-12-18T02:55:18.039Z,7.70
2022-12-18T02:57:54.805Z,7.90
2022-12-18T03:00:39.217Z,7.90
2022-12-18T03:03:24.486Z,8.10
2022-12-18T03:06:05.498Z,7.20
2022-12-18T03:08:40.643Z,7.50
2022-12-18T03:11:14.928Z,7.50
2022-12-18T03:13:57.217Z,7.40
2022-12-18T03:16:31.264Z,7.60
2022-12-18T03:19:05.400Z,7.30
2022-12-18T03:21:51.034Z,7.40
2022-12-18T03:24:21.378Z,7.50
2022-12-18T03:26:55.420Z,7.20
2022-12-18T03:29:31.026Z,7.30
2022-12-18T03:32:13.045Z,7.70
2022-12-18T03:34:44.991Z,7.00
2022-12-18T03:37:14.142Z,7.50
2022-12-18T03:39:42.710Z,7.40
2022-12-18T03:42:28.794Z,6.80
2022-12-18T03:45:23.290Z,7.70
2022-12-18T03:48:01.570Z,7.80
2022-12-18T03:51:15.635Z,7.50
2022-12-18T03:54:05.020Z,7.50
2022-12-18T03:59:13.881Z,6.70
2022-12-18T04:01:48.600Z,7.40
2022-12-18T04:04:19.961Z,7.50
2022-12-18T04:06:50.658Z,7.30
2022-12-18T04:09:21.695Z,6.70
2022-12-18T04:11:50.145Z,7.50
2022-12-18T04:14:18.686Z,7.80
2022-12-18T04:19:19.463Z,7.80
2022-12-18T04:21:49.030Z,8.10
2022-12-18T04:24:17.152Z,8.20
2022-12-18T04:26:52.913Z,8.30
2022-12-18T04:29:27.194Z,8.40
2022-12-18T04:31:55.523Z,8.60
2022-12-18T04:34:25.327Z,8.40
2022-12-18T04:36:54.412Z,9.80
2022-12-18T04:39:23.292Z,11.00
2022-12-18T04:41:52.637Z,11.30
2022-12-18T04:44:20.896Z,10.50
2022-12-18T04:46:49.054Z,10.40
2022-12-18T04:49:17.317Z,12.40
2022-12-18T04:51:45.523Z,10.10
2022-12-18T04:54:13.561Z,10.90
2022-12-18T04:56:41.736Z,12.40
2022-12-18T04:59:09.840Z,10.60
2022-12-18T05:01:38.182Z,10.50
2022-12-18T05:04:07.086Z,10.00
2022-12-18T05:06:35.240Z,10.80
2022-12-18T05:09:05.468Z,10.00
2022-12-18T05:11:34.910Z,10.40
2022-12-18T05:14:03.273Z,10.40
2022-12-18T05:16:31.481Z,11.20
2022-12-18T05:18:59.716Z,10.90
2022-12-18T05:21:27.816Z,10.50
2022-12-18T05:23:55.977Z,10.20
2022-12-18T05:26:24.281Z,10.50
2022-12-18T05:28:52.396Z,11.00
2022-12-18T05:31:20.619Z,13.00
2022-12-18T05:33:49.996Z,14.20
2022-12-18T05:36:18.198Z,11.70
2022-12-18T05:38:46.470Z,12.50
2022-12-18T05:41:14.633Z,12.00
2022-12-18T05:43:44.048Z,12.30
2022-12-18T05:46:18.950Z,13.20
2022-12-18T05:48:47.587Z,11.70
2022-12-18T05:51:19.327Z,11.80
2022-12-18T05:53:48.439Z,13.10
2022-12-18T05:56:21.106Z,13.70
2022-12-18T05:58:53.852Z,14.30
2022-12-18T06:01:27.505Z,14.50
2022-12-18T06:03:56.623Z,14.40
2022-12-18T06:06:28.007Z,14.60
2022-12-18T06:08:57.692Z,14.10
2022-12-18T06:11:27.732Z,14.70
2022-12-18T06:13:58.915Z,14.40
2022-12-18T06:16:29.414Z,16.30
2022-12-18T06:19:02.626Z,15.50
2022-12-18T06:21:31.970Z,15.60
2022-12-18T06:24:01.167Z,15.70
2022-12-18T06:26:29.325Z,15.20
2022-12-18T06:28:57.951Z,16.80
2022-12-18T06:31:26.954Z,14.90
2022-12-18T06:33:55.105Z,14.60
2022-12-18T06:36:23.312Z,14.90
2022-12-18T06:38:51.385Z,15.60
2022-12-18T06:41:22.270Z,14.90
2022-12-18T06:43:52.195Z,15.50
2022-12-18T06:46:22.766Z,16.10
2022-12-18T06:48:51.624Z,14.60
2022-12-18T06:51:24.714Z,15.00
2022-12-18T06:53:52.947Z,15.20
2022-12-18T06:56:21.289Z,14.20
2022-12-18T06:58:52.547Z,14.70
2022-12-18T07:01:20.926Z,14.90
2022-12-18T07:03:55.486Z,15.70
2022-12-18T07:06:26.591Z,16.10
2022-12-18T07:08:56.193Z,17.60
2022-12-18T07:11:25.364Z,16.90
2022-12-18T07:13:54.316Z,18.70
2022-12-18T07:16:25.652Z,15.40
2022-12-18T07:18:56.360Z,16.30
2022-12-18T07:21:25.819Z,16.40
2022-12-18T07:23:53.959Z,15.10
2022-12-18T07:26:23.646Z,17.90
2022-12-18T07:28:55.715Z,15.30
2022-12-18T07:31:25.532Z,17.10
2022-12-18T07:33:53.879Z,15.80
2022-12-18T07:36:25.572Z,16.50
2022-12-18T07:41:22.187Z,13.10
2022-12-18T07:43:50.667Z,13.60
2022-12-18T07:46:19.181Z,13.30
2022-12-18T07:48:49.733Z,12.20
2022-12-18T07:51:20.811Z,13.30
2022-12-18T07:53:52.571Z,13.70
2022-12-18T07:56:27.668Z,14.10
2022-12-18T07:58:58.753Z,14.10
2022-12-18T08:01:28.172Z,13.20
2022-12-18T08:03:56.634Z,13.40
2022-12-18T08:06:25.158Z,14.20
2022-12-18T08:08:55.587Z,14.80
2022-12-18T08:11:27.689Z,15.20
2022-12-18T08:13:56.815Z,15.20
2022-12-18T08:16:25.336Z,15.70
2022-12-18T08:18:54.848Z,16.50
2022-12-18T08:21:32.677Z,14.70
2022-12-18T08:24:02.793Z,13.80
2022-12-18T08:26:32.646Z,14.20
2022-12-18T08:29:01.793Z,13.70
2022-12-18T08:31:32.057Z,12.70
2022-12-18T08:34:00.290Z,13.90
2022-12-18T08:36:28.740Z,13.20
2022-12-18T08:38:58.349Z,12.90
2022-12-18T08:41:27.502Z,13.10
2022-12-18T08:44:15.260Z,13.50
2022-12-18T08:46:45.030Z,11.60
2022-12-18T08:49:15.706Z,11.80
2022-12-18T08:51:43.776Z,12.10
2022-12-18T08:54:14.642Z,12.90
2022-12-18T08:56:43.135Z,10.70
2022-12-18T08:59:17.292Z,10.30
2022-12-18T09:01:47.977Z,9.90
2022-12-18T09:04:16.743Z,9.80
2022-12-18T09:06:45.029Z,9.40
2022-12-18T09:09:13.671Z,8.40
2022-12-18T09:11:41.998Z,8.60
2022-12-18T09:14:10.997Z,9.80
2022-12-18T09:16:39.416Z,9.40
2022-12-18T09:19:08.148Z,8.80
2022-12-18T09:21:43.383Z,9.10
2022-12-18T09:24:15.796Z,8.60
2022-12-18T09:26:47.225Z,7.70
2022-12-18T09:31:47.685Z,9.70
2022-12-18T09:34:17.749Z,10.70
2022-12-18T09:36:45.953Z,15.50
2022-12-18T09:39:17.344Z,15.20
2022-12-18T09:41:59.023Z,16.00
2022-12-18T09:44:32.663Z,14.10
2022-12-18T09:47:05.067Z,15.60
2022-12-18T09:49:40.481Z,15.00
2022-12-18T09:52:35.520Z,14.30
2022-12-18T09:55:19.532Z,14.50
2022-12-18T09:57:54.458Z,13.90
2022-12-18T10:00:26.155Z,13.80
2022-12-18T10:03:10.450Z,13.80
2022-12-18T10:05:45.637Z,14.00
2022-12-18T10:08:35.236Z,14.20
2022-12-18T10:11:41.048Z,14.10
2022-12-18T10:14:34.246Z,12.60
2022-12-18T10:17:26.696Z,13.00
2022-12-18T10:20:36.234Z,14.50
2022-12-18T10:23:16.747Z,13.00
2022-12-18T10:26:06.064Z,12.80
2022-12-18T10:28:42.778Z,14.80
2022-12-18T10:31:24.561Z,13.00
2022-12-18T10:33:57.100Z,13.80
2022-12-18T10:36:26.497Z,13.90
2022-12-18T10:38:54.673Z,13.50
2022-12-18T10:41:27.422Z,12.20
2022-12-18T10:44:19.211Z,13.20
2022-12-18T10:46:51.414Z,12.00
2022-12-18T10:49:39.219Z,12.20
2022-12-18T10:52:21.535Z,13.00
2022-12-18T10:55:03.804Z,12.00
2022-12-18T10:57:42.728Z,11.50
2022-12-18T11:00:34.019Z,11.80
2022-12-18T11:03:40.131Z,11.10
2022-12-18T11:06:23.207Z,11.80
2022-12-18T11:09:19.971Z,10.80
2022-12-18T11:11:54.571Z,10.70
2022-12-18T11:14:47.326Z,11.50
2022-12-18T11:17:37.007Z,10.40
2022-12-18T11:20:33.085Z,11.10
2022-12-18T11:23:15.152Z,10.80
2022-12-18T11:26:05.740Z,10.30
2022-12-18T11:29:11.305Z,9.80
2022-12-18T11:31:41.156Z,9.40
2022-12-18T11:34:34.307Z,9.90
2022-12-18T11:37:04.697Z,10.70
2022-12-18T11:39:46.395Z,10.20
2022-12-18T11:42:36.886Z,9.90
2022-12-18T11:45:14.500Z,10.30
2022-12-18T11:48:02.630Z,11.10
2022-12-18T11:50:58.113Z,10.00
2022-12-18T11:53:54.175Z,10.20
2022-12-18T11:56:50.512Z,9.00
2022-12-18T11:59:44.688Z,10.20
2022-12-18T12:02:51.033Z,9.20
2022-12-18T12:06:10.228Z,8.60
2022-12-18T12:09:06.366Z,9.40
2022-12-18T12:11:58.744Z,9.30
2022-12-18T12:15:09.047Z,9.20
2022-12-18T12:18:28.200Z,8.10
2022-12-18T12:21:41.730Z,8.50
2022-12-18T12:24:53.057Z,8.50
2022-12-18T12:27:38.025Z,9.10
2022-12-18T12:30:36.507Z,8.50
2022-12-18T12:33:32.637Z,8.90
2022-12-18T12:36:27.647Z,8.20
2022-12-18T12:39:02.269Z,8.20
2022-12-18T12:41:53.750Z,8.30
2022-12-18T12:44:29.433Z,9.00
2022-12-18T12:47:12.250Z,8.80
2022-12-18T12:49:41.671Z,7.90
2022-12-18T12:52:38.304Z,7.90
2022-12-18T12:55:26.762Z,7.80
2022-12-18T12:58:10.082Z,8.40
2022-12-18T13:00:55.181Z,8.30
2022-12-18T13:03:41.449Z,7.90
2022-12-18T13:06:49.254Z,8.20
2022-12-18T13:09:18.160Z,8.40
2022-12-18T13:12:06.775Z,7.80
2022-12-18T13:14:41.727Z,7.50
2022-12-18T13:17:22.157Z,7.70
2022-12-18T13:20:09.910Z,7.80
2022-12-18T13:22:51.233Z,7.80
2022-12-18T13:25:39.076Z,8.40
2022-12-18T13:28:17.386Z,7.70
2022-12-18T13:30:50.865Z,7.60
2022-12-18T13:33:28.736Z,8.10
2022-12-18T13:36:09.900Z,7.40
2022-12-18T13:38:39.782Z,7.50
2022-12-18T13:41:29.524Z,7.90
2022-12-18T13:44:13.638Z,8.10
2022-12-18T13:46:47.689Z,7.50
2022-12-18T13:49:15.757Z,7.40
2022-12-18T13:51:54.621Z,7.80
2022-12-18T13:54:42.621Z,8.00
2022-12-18T13:57:34.153Z,7.50
2022-12-18T14:00:32.523Z,7.40
2022-12-18T14:03:02.168Z,8.40
2022-12-18T14:05:36.176Z,7.20
2022-12-18T14:08:14.009Z,7.60
2022-12-18T14:10:49.330Z,7.30
2022-12-18T14:13:43.283Z,7.30
2022-12-18T14:16:16.264Z,7.40
2022-12-18T14:18:47.349Z,6.80
2022-12-18T14:21:39.527Z,7.00
2022-12-18T14:24:22.754Z,7.70
2022-12-18T14:26:52.309Z,7.60
2022-12-18T14:29:25.577Z,7.50
2022-12-18T14:32:20.184Z,7.50
2022-12-18T14:34:55.093Z,7.90
2022-12-18T14:37:26.633Z,7.80
2022-12-18T14:40:00.588Z,7.40
2022-12-18T14:42:30.159Z,7.30
2022-12-18T14:45:41.823Z,7.80
2022-12-18T14:48:25.214Z,7.00
2022-12-18T14:51:15.581Z,7.50
2022-12-18T14:53:54.077Z,8.50
2022-12-18T14:56:32.613Z,8.10
2022-12-18T14:59:07.742Z,7.80
2022-12-18T15:01:49.032Z,8.00
2022-12-18T15:04:43.014Z,7.80
2022-12-18T15:07:14.998Z,7.80
2022-12-18T15:10:16.217Z,7.20
2022-12-18T15:12:48.077Z,7.80
2022-12-18T15:15:34.746Z,7.90
2022-12-18T15:18:13.180Z,7.10
2022-12-18T15:20:50.898Z,9.50
2022-12-18T15:23:53.786Z,10.20
2022-12-18T15:26:23.585Z,10.90
2022-12-18T15:28:56.974Z,10.50
2022-12-18T15:31:31.758Z,10.60
2022-12-18T15:34:09.082Z,10.20
2022-12-18T15:36:37.613Z,10.80
2022-12-18T15:39:06.677Z,11.00
2022-12-18T15:41:37.521Z,11.00
2022-12-18T15:44:26.572Z,10.40
2022-12-18T15:46:58.082Z,11.20
2022-12-18T15:49:26.421Z,12.50
2022-12-18T15:52:00.944Z,12.70
2022-12-18T15:54:47.711Z,11.70
2022-12-18T15:57:24.921Z,10.90
2022-12-18T15:59:57.550Z,11.10
2022-12-18T16:02:26.848Z,11.60
2022-12-18T16:04:55.304Z,11.80
2022-12-18T16:07:25.522Z,11.40
2022-12-18T16:09:55.833Z,11.00
2022-12-18T16:12:26.782Z,12.30
2022-12-18T16:14:55.164Z,11.30
2022-12-18T16:17:23.205Z,12.70
2022-12-18T16:19:51.476Z,11.10
2022-12-18T16:22:26.133Z,12.00
2022-12-18T16:24:56.773Z,11.60
2022-12-18T16:27:26.172Z,10.80
2022-12-18T16:29:54.345Z,10.70
2022-12-18T16:32:23.720Z,12.00
2022-12-18T16:34:53.153Z,10.70
2022-12-18T16:37:21.295Z,11.80
2022-12-18T16:39:49.380Z,12.70
2022-12-18T16:42:21.244Z,11.70
2022-12-18T16:44:50.516Z,11.20
2022-12-18T16:47:20.267Z,10.70
2022-12-18T16:49:51.766Z,10.80
2022-12-18T16:54:49.192Z,10.60
2022-12-18T16:57:21.153Z,9.90
2022-12-18T16:59:53.328Z,10.10
2022-12-18T17:02:25.111Z,9.80
2022-12-18T17:04:56.899Z,10.70
2022-12-18T17:07:26.995Z,10.00
2022-12-18T17:09:55.764Z,9.50
2022-12-18T17:12:24.963Z,10.20
2022-12-18T17:14:53.060Z,10.20
2022-12-18T17:17:22.557Z,9.90
2022-12-18T17:19:52.511Z,10.10
2022-12-18T17:22:23.605Z,10.50
2022-12-18T17:24:52.165Z,10.20
2022-12-18T17:27:20.442Z,10.10
2022-12-18T17:29:49.163Z,10.00
2022-12-18T17:32:18.352Z,10.90
2022-12-18T17:34:46.766Z,9.90
2022-12-18T17:37:15.554Z,10.90
2022-12-18T17:39:43.780Z,10.50
2022-12-18T17:42:15.569Z,10.80
2022-12-18T17:44:44.929Z,10.70
2022-12-18T17:47:14.677Z,10.60
2022-12-18T17:49:42.756Z,12.30
2022-12-18T17:52:11.195Z,12.00
2022-12-18T17:54:42.297Z,11.40
2022-12-18T17:57:10.728Z,11.70
2022-12-18T17:59:39.022Z,12.60
2022-12-18T18:02:10.022Z,13.00
2022-12-18T18:04:38.520Z,11.60
2022-12-18T18:07:06.796Z,11.50
2022-12-18T18:09:35.068Z,11.80
2022-12-18T18:12:21.982Z,12.00
2022-12-18T18:14:50.982Z,11.40
2022-12-18T18:17:19.865Z,12.00
2022-12-18T18:19:48.030Z,12.10
2022-12-18T18:22:19.287Z,12.20
2022-12-18T18:24:48.547Z,11.40
2022-12-18T18:27:17.258Z,11.80
2022-12-18T18:29:45.651Z,12.10
2022-12-18T18:32:13.787Z,12.60
2022-12-18T18:34:42.204Z,13.70
2022-12-18T18:37:12.120Z,14.60
2022-12-18T18:39:40.401Z,13.70
2022-12-18T18:42:09.184Z,14.00
2022-12-18T18:44:37.269Z,13.20
2022-12-18T18:47:08.598Z,13.30
2022-12-18T18:49:38.007Z,14.20
2022-12-18T18:52:07.412Z,13.00
2022-12-18T18:54:35.706Z,13.50
2022-12-18T18:57:20.291Z,13.20
2022-12-18T18:59:49.170Z,12.80
2022-12-18T19:02:18.132Z,13.20
2022-12-18T19:04:47.151Z,13.80
2022-12-18T19:07:26.165Z,13.10
2022-12-18T19:10:03.508Z,13.40
2022-12-18T19:12:53.433Z,12.90
2022-12-18T19:15:23.451Z,12.50
2022-12-18T19:17:51.820Z,13.10
2022-12-18T19:20:20.233Z,13.00
2022-12-18T19:22:55.464Z,13.40
2022-12-18T19:25:33.860Z,13.50
2022-12-18T19:28:15.801Z,14.60
2022-12-18T19:31:01.771Z,18.20
2022-12-18T19:33:42.736Z,15.30
2022-12-18T19:36:20.825Z,14.90
2022-12-18T19:38:51.298Z,13.60
2022-12-18T19:41:21.210Z,15.00
2022-12-18T19:43:51.190Z,14.00
2022-12-18T19:46:22.989Z,14.60
2022-12-18T19:48:51.828Z,17.40
2022-12-18T19:51:26.483Z,15.00
2022-12-18T19:53:58.820Z,16.10
2022-12-18T19:56:34.787Z,17.30
2022-12-18T19:59:05.242Z,16.30
2022-12-18T20:01:33.902Z,15.40
2022-12-18T20:04:02.668Z,15.00
2022-12-18T20:06:53.496Z,16.30
2022-12-18T20:09:22.040Z,15.20
2022-12-18T20:11:50.894Z,15.70
2022-12-18T20:14:23.224Z,15.10
2022-12-18T20:16:53.027Z,14.80
2022-12-18T20:19:22.551Z,15.50
2022-12-18T20:21:51.139Z,15.30
2022-12-18T20:24:19.314Z,15.20
2022-12-18T20:26:47.589Z,15.30
2022-12-18T20:29:15.970Z,15.40
2022-12-18T20:31:44.269Z,14.70
2022-12-18T20:34:12.623Z,15.40
2022-12-18T20:36:41.187Z,14.80
2022-12-18T20:39:13.310Z,14.50
2022-12-18T20:41:41.959Z,14.00
2022-12-18T20:44:23.112Z,14.60
2022-12-18T20:47:00.340Z,13.90
2022-12-18T20:49:35.361Z,14.10
2022-12-18T20:52:04.011Z,14.90
2022-12-18T20:54:32.219Z,14.40
2022-12-18T20:57:00.496Z,15.20
2022-12-18T20:59:28.775Z,14.10
2022-12-18T21:01:57.097Z,14.50
2022-12-18T21:04:26.250Z,13.80
2022-12-18T21:06:58.027Z,14.30
2022-12-18T21:09:36.945Z,14.30
2022-12-18T21:12:33.468Z,13.50
2022-12-18T21:15:10.060Z,13.80
2022-12-18T21:17:44.139Z,14.80
2022-12-18T21:20:17.299Z,13.80
2022-12-18T21:22:47.233Z,14.30
2022-12-18T21:25:15.637Z,14.70
2022-12-18T21:27:43.813Z,14.20
2022-12-18T21:30:14.515Z,14.40
2022-12-18T21:32:42.621Z,14.40
2022-12-18T21:35:10.794Z,14.10
2022-12-18T21:37:38.907Z,14.80
2022-12-18T21:40:08.545Z,14.70
2022-12-18T21:42:55.477Z,15.00
2022-12-18T21:45:23.663Z,14.00
2022-12-18T21:47:51.838Z,14.60
2022-12-18T21:50:19.975Z,15.90
2022-12-18T21:52:47.994Z,14.20
2022-12-18T21:55:16.154Z,14.50
2022-12-18T21:57:44.212Z,14.50
2022-12-18T22:00:19.199Z,15.00
2022-12-18T22:03:16.937Z,14.50
2022-12-18T22:05:38.449Z,13.70
2022-12-18T22:08:07.645Z,14.30
2022-12-18T22:10:37.390Z,14.50
2022-12-18T22:13:07.469Z,13.90
2022-12-18T22:15:35.704Z,14.20
2022-12-18T22:18:04.129Z,13.70
2022-12-18T22:20:32.518Z,14.10
2022-12-18T22:23:02.884Z,13.20
2022-12-18T22:25:36.010Z,14.30
2022-12-18T22:28:26.931Z,14.00
2022-12-18T22:30:59.584Z,13.50
2022-12-18T22:33:28.670Z,14.80
2022-12-18T22:35:57.092Z,14.60
2022-12-18T22:38:26.384Z,14.60
2022-12-18T22:40:55.173Z,14.10
2022-12-18T22:43:23.600Z,13.80
2022-12-18T22:45:51.735Z,13.00
2022-12-18T22:48:20.105Z,14.00
2022-12-18T22:50:48.279Z,14.10
2022-12-18T22:53:18.099Z,14.10
2022-12-18T22:55:46.368Z,15.50
2022-12-18T22:58:14.545Z,13.00
2022-12-18T23:00:42.717Z,14.30
2022-12-18T23:03:11.097Z,14.10
2022-12-18T23:05:39.789Z,13.90
2022-12-18T23:08:07.962Z,13.80
2022-12-18T23:10:39.643Z,13.20
2022-12-18T23:13:08.525Z,12.80
2022-12-18T23:15:42.880Z,13.30
2022-12-18T23:18:11.815Z,12.90
2022-12-18T23:20:40.061Z,12.50
2022-12-18T23:23:08.406Z,12.30
2022-12-18T23:25:36.874Z,12.80
2022-12-18T23:28:06.077Z,12.70
2022-12-18T23:30:34.351Z,12.70
2022-12-18T23:33:02.702Z,13.10
2022-12-18T23:35:31.286Z,12.70
2022-12-18T23:38:00.160Z,11.50
2022-12-18T23:40:30.088Z,11.90
2022-12-18T23:43:00.209Z,11.70
2022-12-18T23:45:28.404Z,11.40
2022-12-18T23:47:56.762Z,11.50
2022-12-18T23:50:29.392Z,11.20
2022-12-18T23:53:00.812Z,12.10
2022-12-18T23:55:40.472Z,11.20
2022-12-18T23:58:18.234Z,10.60
